createdAt,value
2022-07-29T00:00:14.012Z,59.40
2022-07-29T00:01:19.299Z,59.60
2022-07-29T00:02:14.049Z,59.83
2022-07-29T00:03:14.095Z,59.93
2022-07-29T00:04:14.505Z,60.03
2022-07-29T00:05:14.279Z,60.13
2022-07-29T00:06:14.025Z,60.44
2022-07-29T00:07:14.078Z,60.53
2022-07-29T00:08:14.198Z,60.64
2022-07-29T00:09:14.171Z,60.24
2022-07-29T00:10:14.251Z,60.64
2022-07-29T00:11:14.229Z,60.44
2022-07-29T00:12:14.293Z,60.64
2022-07-29T00:13:14.334Z,60.53
2022-07-29T00:14:14.750Z,60.53
2022-07-29T00:15:14.476Z,60.53
2022-07-29T00:16:14.499Z,60.53
2022-07-29T00:17:14.506Z,60.03
2022-07-29T00:18:14.510Z,60.03
2022-07-29T00:19:14.569Z,59.93
2022-07-29T00:20:14.677Z,59.93
2022-07-29T00:21:14.695Z,59.60
2022-07-29T00:22:14.691Z,59.60
2022-07-29T00:23:14.744Z,59.60
2022-07-29T00:24:15.061Z,59.60
2022-07-29T00:25:14.845Z,59.40
2022-07-29T00:26:14.822Z,59.50
2022-07-29T00:27:14.891Z,59.30
2022-07-29T00:28:14.971Z,59.40
2022-07-29T00:29:33.449Z,59.70
2022-07-29T00:30:14.929Z,59.60
2022-07-29T00:31:15.147Z,59.80
2022-07-29T00:32:15.074Z,59.80
2022-07-29T00:33:15.160Z,59.93
2022-07-29T00:34:15.412Z,59.90
2022-07-29T00:35:15.118Z,59.80
2022-07-29T00:36:15.117Z,60.21
2022-07-29T00:37:15.235Z,60.13
2022-07-29T00:38:15.223Z,60.24
2022-07-29T00:39:15.153Z,60.13
2022-07-29T00:40:15.240Z,60.53
2022-07-29T00:41:15.217Z,60.64
2022-07-29T00:42:15.284Z,60.84
2022-07-29T00:43:15.364Z,61.04
2022-07-29T00:44:15.607Z,60.84
2022-07-29T00:45:15.372Z,60.94
2022-07-29T00:46:15.389Z,60.94
2022-07-29T00:47:15.385Z,60.94
2022-07-29T00:48:15.497Z,61.04
2022-07-29T00:49:15.536Z,60.94
2022-07-29T00:50:15.466Z,60.94
2022-07-29T00:52:41.457Z,60.84
2022-07-29T00:53:41.488Z,61.04
2022-07-29T00:54:44.268Z,60.94
2022-07-29T00:55:41.592Z,60.84
2022-07-29T00:56:41.648Z,60.94
2022-07-29T00:57:41.606Z,60.94
2022-07-29T00:58:41.653Z,60.94
2022-07-29T00:59:41.808Z,60.94
2022-07-29T01:00:41.766Z,60.94
2022-07-29T01:01:41.779Z,61.04
2022-07-29T01:02:41.818Z,60.94
2022-07-29T01:03:41.798Z,61.24
2022-07-29T01:04:41.851Z,61.14
2022-07-29T01:05:50.729Z,61.14
2022-07-29T01:06:42.031Z,60.94
2022-07-29T01:07:41.987Z,60.94
2022-07-29T01:08:42.029Z,61.14
2022-07-29T01:09:46.048Z,60.94
2022-07-29T01:10:42.202Z,61.04
2022-07-29T01:11:42.173Z,61.14
2022-07-29T01:12:42.235Z,61.14
2022-07-29T01:13:42.312Z,61.04
2022-07-29T01:14:42.274Z,61.14
2022-07-29T01:15:49.550Z,61.14
2022-07-29T01:16:42.405Z,61.17
2022-07-29T01:17:53.317Z,61.37
2022-07-29T01:18:42.490Z,61.37
2022-07-29T01:19:42.484Z,61.37
2022-07-29T01:20:42.609Z,61.37
2022-07-29T01:21:42.636Z,61.37
2022-07-29T01:22:42.615Z,61.47
2022-07-29T01:23:42.694Z,61.57
2022-07-29T01:24:42.760Z,61.68
2022-07-29T01:25:42.768Z,61.68
2022-07-29T01:26:42.788Z,61.57
2022-07-29T01:27:42.758Z,61.68
2022-07-29T01:28:42.782Z,61.57
2022-07-29T01:29:42.828Z,61.68
2022-07-29T01:30:42.899Z,61.88
2022-07-29T01:31:55.236Z,61.98
2022-07-29T01:32:42.949Z,62.08
2022-07-29T01:33:43.000Z,62.18
2022-07-29T01:34:43.058Z,62.18
2022-07-29T01:35:43.141Z,62.08
2022-07-29T01:36:43.123Z,62.28
2022-07-29T01:37:43.182Z,62.38
2022-07-29T01:38:43.234Z,62.28
2022-07-29T01:39:43.290Z,62.62
2022-07-29T01:40:43.341Z,62.51
2022-07-29T01:41:43.494Z,62.51
2022-07-29T01:42:43.377Z,62.71
2022-07-29T01:43:43.427Z,62.92
2022-07-29T01:44:43.474Z,63.02
2022-07-29T01:45:43.523Z,63.02
2022-07-29T01:46:43.733Z,63.62
2022-07-29T01:47:43.646Z,63.22
2022-07-29T01:48:43.740Z,63.82
2022-07-29T01:49:43.908Z,63.73
2022-07-29T01:50:43.798Z,63.93
2022-07-29T01:51:43.783Z,64.03
2022-07-29T01:52:43.891Z,63.73
2022-07-29T01:53:43.867Z,63.65
2022-07-29T01:54:43.938Z,63.85
2022-07-29T01:55:43.978Z,64.06
2022-07-29T01:56:44.036Z,64.56
2022-07-29T01:57:44.082Z,64.97
2022-07-29T01:58:44.143Z,64.87
2022-07-29T01:59:44.189Z,65.37
2022-07-29T02:00:44.278Z,65.27
2022-07-29T02:01:44.327Z,65.27
2022-07-29T02:02:44.307Z,64.36
2022-07-29T02:03:44.307Z,64.36
2022-07-29T02:04:44.322Z,64.87
2022-07-29T02:05:44.309Z,64.46
2022-07-29T02:06:44.354Z,64.16
2022-07-29T02:07:44.421Z,64.16
2022-07-29T02:08:45.254Z,64.97
2022-07-29T02:09:44.403Z,64.16
2022-07-29T02:10:44.513Z,63.96
2022-07-29T02:11:44.482Z,63.55
2022-07-29T02:12:48.547Z,63.65
2022-07-29T02:13:44.594Z,63.52
2022-07-29T02:14:44.713Z,63.73
2022-07-29T02:15:44.719Z,63.62
2022-07-29T02:16:44.766Z,63.62
2022-07-29T02:17:44.734Z,63.85
2022-07-29T02:18:44.801Z,64.06
2022-07-29T02:19:44.857Z,64.26
2022-07-29T02:20:44.916Z,64.36
2022-07-29T02:21:44.975Z,64.46
2022-07-29T02:22:45.033Z,64.56
2022-07-29T02:23:50.972Z,64.67
2022-07-29T02:24:45.146Z,64.67
2022-07-29T02:25:45.206Z,64.67
2022-07-29T02:26:45.266Z,64.67
2022-07-29T02:27:45.431Z,64.76
2022-07-29T02:28:45.318Z,64.97
2022-07-29T02:29:45.372Z,64.87
2022-07-29T02:30:45.472Z,64.97
2022-07-29T02:40:21.337Z,64.76
2022-07-29T02:49:57.242Z,64.56
2022-07-29T02:50:57.286Z,64.26
2022-07-29T02:51:57.342Z,64.36
2022-07-29T02:52:57.403Z,64.06
2022-07-29T02:53:57.454Z,64.36
2022-07-29T02:54:57.517Z,64.16
2022-07-29T02:55:57.634Z,63.85
2022-07-29T02:56:57.612Z,63.96
2022-07-29T02:57:57.697Z,63.96
2022-07-29T02:58:57.676Z,64.06
2022-07-29T02:59:57.725Z,64.16
2022-07-29T03:00:57.776Z,63.96
2022-07-29T03:01:57.914Z,64.06
2022-07-29T03:02:57.887Z,64.16
2022-07-29T03:03:57.942Z,64.16
2022-07-29T03:04:58.185Z,64.26
2022-07-29T03:05:57.966Z,64.36
2022-07-29T03:06:58.017Z,64.46
2022-07-29T03:07:58.080Z,64.46
2022-07-29T03:08:58.128Z,64.56
2022-07-29T03:09:58.197Z,64.46
2022-07-29T03:10:58.247Z,64.46
2022-07-29T03:11:58.317Z,64.56
2022-07-29T03:12:59.040Z,64.46
2022-07-29T03:13:58.390Z,64.36
2022-07-29T03:14:58.490Z,64.26
2022-07-29T03:15:58.540Z,64.46
2022-07-29T03:16:58.552Z,64.76
2022-07-29T03:17:58.659Z,65.07
2022-07-29T03:18:58.620Z,65.47
2022-07-29T03:19:58.681Z,65.50
2022-07-29T03:20:58.581Z,65.70
2022-07-29T03:21:58.660Z,65.81
2022-07-29T03:22:58.681Z,66.11
2022-07-29T03:23:58.662Z,65.81
2022-07-29T03:24:58.741Z,66.01
2022-07-29T03:25:58.714Z,66.01
2022-07-29T03:26:58.784Z,66.01
2022-07-29T03:27:58.832Z,66.01
2022-07-29T03:28:58.901Z,65.91
2022-07-29T03:29:59.789Z,66.21
2022-07-29T03:30:59.062Z,66.41
2022-07-29T03:31:59.035Z,66.21
2022-07-29T03:32:59.020Z,66.11
2022-07-29T03:33:59.006Z,66.04
2022-07-29T03:34:59.049Z,66.04
2022-07-29T03:35:59.048Z,66.14
2022-07-29T03:36:59.033Z,66.24
2022-07-29T03:37:59.067Z,66.44
2022-07-29T03:40:25.077Z,66.24
2022-07-29T03:41:25.226Z,66.44
2022-07-29T03:42:25.249Z,66.14
2022-07-29T03:43:25.218Z,66.24
2022-07-29T03:44:25.281Z,65.84
2022-07-29T03:45:25.329Z,65.84
2022-07-29T03:46:25.437Z,65.64
2022-07-29T03:47:35.178Z,66.14
2022-07-29T03:48:25.411Z,65.94
2022-07-29T03:49:25.558Z,65.73
2022-07-29T03:50:25.490Z,65.53
2022-07-29T03:51:33.229Z,65.53
2022-07-29T03:52:25.482Z,65.30
2022-07-29T03:53:25.533Z,65.30
2022-07-29T03:54:25.551Z,65.33
2022-07-29T03:55:25.632Z,65.30
2022-07-29T04:22:13.313Z,68.40
2022-07-29T04:23:13.374Z,69.31
2022-07-29T04:24:13.875Z,69.31
2022-07-29T04:25:13.483Z,68.60
2022-07-29T04:26:13.550Z,68.60
2022-07-29T04:27:13.546Z,68.60
2022-07-29T04:28:13.526Z,68.40
2022-07-29T04:29:13.826Z,68.40
2022-07-29T04:30:13.637Z,67.39
2022-07-29T04:31:13.657Z,68.10
2022-07-29T04:32:13.689Z,68.80
2022-07-29T04:33:13.918Z,68.30
2022-07-29T04:34:14.089Z,68.70
2022-07-29T04:35:13.737Z,68.10
2022-07-29T04:36:28.600Z,68.50
2022-07-29T04:37:13.821Z,68.60
2022-07-29T04:38:15.845Z,68.50
2022-07-29T04:39:16.122Z,68.60
2022-07-29T04:40:13.908Z,68.60
2022-07-29T04:41:13.894Z,68.60
2022-07-29T04:42:13.971Z,68.50
2022-07-29T04:43:14.259Z,68.40
2022-07-29T04:44:14.347Z,68.70
2022-07-29T04:45:14.020Z,68.50
2022-07-29T04:46:14.162Z,68.70
2022-07-29T04:47:14.091Z,68.50
2022-07-29T04:48:14.142Z,68.60
2022-07-29T04:49:14.915Z,68.30
2022-07-29T04:50:14.193Z,68.19
2022-07-29T04:51:14.193Z,67.99
2022-07-29T04:52:14.217Z,67.89
2022-07-29T04:53:15.118Z,67.69
2022-07-29T04:54:14.589Z,67.66
2022-07-29T04:55:14.284Z,67.46
2022-07-29T04:56:14.423Z,67.35
2022-07-29T04:57:14.345Z,67.46
2022-07-29T04:58:14.406Z,67.35
2022-07-29T04:59:14.446Z,67.66
2022-07-29T05:00:14.458Z,67.66
2022-07-29T05:01:14.757Z,67.76
2022-07-29T05:02:14.593Z,67.66
2022-07-29T05:03:14.703Z,67.96
2022-07-29T05:04:14.857Z,67.76
2022-07-29T05:05:15.133Z,67.55
2022-07-29T05:06:14.528Z,67.55
2022-07-29T05:07:14.588Z,67.55
2022-07-29T05:08:14.569Z,67.52
2022-07-29T05:09:14.569Z,67.52
2022-07-29T05:10:14.679Z,67.43
2022-07-29T05:11:18.171Z,67.12
2022-07-29T05:12:14.591Z,67.22
2022-07-29T05:13:14.645Z,67.29
2022-07-29T05:14:15.066Z,66.99
2022-07-29T05:15:14.755Z,66.69
2022-07-29T05:16:14.869Z,66.69
2022-07-29T05:17:14.672Z,66.38
2022-07-29T05:18:14.672Z,66.78
2022-07-29T05:19:14.922Z,66.45
2022-07-29T05:20:14.693Z,66.38
2022-07-29T05:21:14.692Z,66.89
2022-07-29T05:22:14.764Z,66.78
2022-07-29T05:23:14.841Z,66.58
2022-07-29T05:24:15.165Z,66.78
2022-07-29T05:25:14.869Z,66.65
2022-07-29T05:26:14.864Z,66.55
2022-07-29T05:27:14.971Z,66.15
2022-07-29T05:28:14.995Z,66.55
2022-07-29T05:29:42.794Z,66.75
2022-07-29T05:30:15.027Z,66.35
2022-07-29T05:31:15.129Z,66.15
2022-07-29T05:32:15.076Z,66.05
2022-07-29T05:33:35.400Z,66.45
2022-07-29T05:34:15.316Z,66.22
2022-07-29T05:35:15.159Z,66.32
2022-07-29T05:36:15.206Z,65.92
2022-07-29T05:37:15.252Z,66.22
2022-07-29T05:38:15.308Z,66.52
2022-07-29T05:39:15.331Z,66.62
2022-07-29T05:40:15.371Z,66.42
2022-07-29T05:41:15.378Z,66.42
2022-07-29T05:42:15.450Z,67.02
2022-07-29T05:43:15.422Z,66.93
2022-07-29T05:44:15.711Z,66.93
2022-07-29T05:45:15.473Z,66.82
2022-07-29T05:46:15.616Z,66.08
2022-07-29T05:47:15.481Z,66.29
2022-07-29T05:48:15.552Z,66.08
2022-07-29T05:49:27.025Z,66.08
2022-07-29T05:50:15.549Z,66.05
2022-07-29T05:51:15.571Z,65.55
2022-07-29T05:52:15.651Z,65.25
2022-07-29T05:53:18.926Z,65.05
2022-07-29T05:54:16.194Z,64.72
2022-07-29T05:55:16.699Z,64.72
2022-07-29T05:56:15.775Z,64.72
2022-07-29T05:57:15.836Z,64.48
2022-07-29T05:58:15.838Z,64.07
2022-07-29T05:59:18.179Z,63.57
2022-07-29T06:00:15.881Z,62.66
2022-07-29T06:01:16.590Z,62.97
2022-07-29T06:02:15.951Z,63.27
2022-07-29T06:03:15.931Z,62.57
2022-07-29T06:04:16.342Z,62.54
2022-07-29T06:05:17.156Z,62.94
2022-07-29T06:06:15.929Z,62.13
2022-07-29T06:07:15.948Z,62.44
2022-07-29T06:08:15.975Z,62.34
2022-07-29T06:09:15.989Z,62.44
2022-07-29T06:10:16.029Z,62.74
2022-07-29T06:11:16.030Z,63.04
2022-07-29T06:12:16.111Z,62.81
2022-07-29T06:13:16.108Z,63.51
2022-07-29T06:14:16.392Z,63.31
2022-07-29T06:15:18.686Z,63.11
2022-07-29T06:16:29.563Z,62.71
2022-07-29T06:17:18.211Z,62.48
2022-07-29T06:18:18.517Z,62.88
2022-07-29T06:19:16.343Z,62.88
2022-07-29T06:20:17.219Z,63.08
2022-07-29T06:21:23.897Z,62.48
2022-07-29T06:23:47.735Z,63.48
2022-07-29T06:24:45.740Z,62.88
2022-07-29T06:25:46.951Z,62.85
2022-07-29T06:26:46.432Z,62.45
2022-07-29T06:27:48.652Z,62.45
2022-07-29T06:28:45.030Z,61.54
2022-07-29T06:29:42.594Z,61.71
2022-07-29T06:30:42.705Z,61.61
2022-07-29T06:31:42.672Z,61.01
2022-07-29T06:32:43.303Z,60.28
2022-07-29T06:33:42.713Z,60.88
2022-07-29T06:34:42.736Z,61.15
2022-07-29T06:35:46.564Z,60.12
2022-07-29T06:36:42.792Z,58.43
2022-07-29T06:37:42.904Z,57.63
2022-07-29T06:38:49.206Z,58.23
2022-07-29T06:39:42.843Z,57.50
2022-07-29T06:40:42.877Z,57.50
2022-07-29T06:41:42.876Z,57.83
2022-07-29T06:42:42.955Z,57.93
2022-07-29T06:43:50.509Z,57.70
2022-07-29T06:44:42.958Z,57.70
2022-07-29T06:45:43.047Z,57.80
2022-07-29T06:46:43.124Z,58.20
2022-07-29T06:47:43.689Z,57.98
2022-07-29T06:48:43.048Z,58.07
2022-07-29T06:49:43.049Z,57.45
2022-07-29T06:50:43.057Z,57.24
2022-07-29T06:51:43.149Z,56.72
2022-07-29T06:52:43.159Z,56.20
2022-07-29T06:54:00.262Z,55.87
2022-07-29T06:54:43.210Z,54.97
2022-07-29T06:55:43.222Z,54.94
2022-07-29T06:56:43.230Z,54.94
2022-07-29T06:57:43.232Z,54.77
2022-07-29T06:58:43.241Z,55.07
2022-07-29T06:59:43.277Z,55.99
2022-07-29T07:00:43.315Z,56.20
2022-07-29T07:01:43.369Z,56.42
2022-07-29T07:02:43.489Z,56.02
2022-07-29T07:03:43.403Z,56.22
2022-07-29T07:04:43.464Z,56.55
2022-07-29T07:05:44.347Z,56.85
2022-07-29T07:06:43.545Z,57.15
2022-07-29T07:07:43.565Z,57.24
2022-07-29T07:08:43.559Z,57.28
2022-07-29T07:09:43.646Z,57.37
2022-07-29T07:10:43.627Z,56.98
2022-07-29T07:11:44.450Z,57.28
2022-07-29T07:12:43.674Z,57.28
2022-07-29T07:13:43.719Z,56.87
2022-07-29T07:14:43.785Z,56.98
2022-07-29T07:15:43.826Z,57.45
2022-07-29T07:16:43.885Z,57.85
2022-07-29T07:17:43.829Z,58.15
2022-07-29T07:18:43.935Z,57.45
2022-07-29T07:19:43.921Z,57.05
2022-07-29T07:20:44.844Z,57.45
2022-07-29T07:21:44.239Z,57.75
2022-07-29T07:22:44.254Z,57.24
2022-07-29T07:23:44.216Z,57.35
2022-07-29T07:24:44.152Z,58.05
2022-07-29T07:25:44.211Z,57.65
2022-07-29T07:26:44.237Z,57.35
2022-07-29T07:27:44.277Z,57.55
2022-07-29T07:28:44.360Z,57.35
2022-07-29T07:29:44.480Z,57.35
2022-07-29T07:30:45.048Z,56.95
2022-07-29T07:31:44.500Z,58.05
2022-07-29T07:32:44.447Z,57.24
2022-07-29T07:33:44.496Z,56.37
2022-07-29T07:34:44.608Z,57.17
2022-07-29T07:35:44.559Z,57.37
2022-07-29T07:36:44.579Z,57.05
2022-07-29T07:37:44.636Z,57.32
2022-07-29T07:38:44.620Z,56.62
2022-07-29T07:39:44.668Z,56.12
2022-07-29T07:40:44.692Z,55.49
2022-07-29T07:41:44.779Z,55.40
2022-07-29T07:42:44.764Z,54.60
2022-07-29T07:43:44.846Z,55.40
2022-07-29T07:45:11.712Z,55.29
2022-07-29T07:45:44.920Z,54.67
2022-07-29T07:46:44.893Z,54.47
2022-07-29T07:47:44.904Z,53.74
2022-07-29T07:48:45.034Z,54.04
2022-07-29T07:49:45.104Z,53.02
2022-07-29T07:50:45.014Z,52.37
2022-07-29T07:51:50.731Z,52.37
2022-07-29T07:52:45.067Z,52.44
2022-07-29T07:53:45.099Z,51.42
2022-07-29T07:54:45.135Z,51.75
2022-07-29T07:56:09.265Z,52.37
2022-07-29T07:56:45.205Z,52.47
2022-07-29T07:57:45.227Z,52.37
2022-07-29T07:58:45.247Z,51.97
2022-07-29T07:59:45.238Z,52.07
2022-07-29T08:00:45.313Z,52.27
2022-07-29T08:01:47.786Z,51.92
2022-07-29T08:02:45.358Z,51.10
2022-07-29T08:03:45.363Z,50.90
2022-07-29T08:04:47.166Z,50.78
2022-07-29T08:05:45.371Z,50.18
2022-07-29T08:06:45.452Z,49.63
2022-07-29T08:07:45.393Z,48.69
2022-07-29T08:08:45.359Z,47.97
2022-07-29T08:09:45.411Z,47.67
2022-07-29T08:10:45.490Z,46.98
2022-07-29T08:11:51.517Z,47.97
2022-07-29T08:12:45.515Z,47.70
2022-07-29T08:13:46.405Z,48.19
2022-07-29T08:14:45.572Z,47.38
2022-07-29T08:15:45.638Z,47.45
2022-07-29T08:16:45.820Z,45.92
2022-07-29T08:17:45.690Z,44.81
2022-07-29T08:18:45.904Z,44.89
2022-07-29T08:19:46.631Z,44.35
2022-07-29T08:20:45.771Z,43.02
2022-07-29T08:21:45.825Z,41.89
2022-07-29T08:22:45.869Z,41.38
2022-07-29T08:23:49.645Z,41.38
2022-07-29T08:24:45.972Z,40.58
2022-07-29T08:25:46.001Z,40.78
2022-07-29T08:26:46.096Z,40.58
2022-07-29T08:27:46.142Z,40.48
2022-07-29T08:28:46.186Z,41.49
2022-07-29T08:29:46.221Z,41.44
2022-07-29T08:30:46.285Z,41.24
2022-07-29T08:31:46.379Z,41.63
2022-07-29T08:32:54.814Z,42.22
2022-07-29T08:33:46.407Z,42.25
2022-07-29T08:34:46.455Z,42.27
2022-07-29T08:35:46.547Z,42.71
2022-07-29T08:36:46.546Z,43.82
2022-07-29T08:37:46.560Z,45.17
2022-07-29T08:38:46.571Z,45.89
2022-07-29T08:39:46.597Z,46.19
2022-07-29T08:40:46.607Z,45.76
2022-07-29T08:41:56.873Z,45.67
2022-07-29T08:42:46.646Z,45.86
2022-07-29T08:43:46.659Z,45.67
2022-07-29T08:44:46.708Z,46.56
2022-07-29T08:45:47.374Z,46.26
2022-07-29T08:46:46.731Z,45.07
2022-07-29T08:47:46.721Z,45.34
2022-07-29T08:48:46.835Z,44.73
2022-07-29T08:49:46.822Z,43.97
2022-07-29T08:50:46.895Z,42.43
2022-07-29T08:51:49.481Z,41.38
2022-07-29T08:52:46.940Z,39.46
2022-07-29T08:53:46.981Z,39.23
2022-07-29T08:54:47.046Z,38.30
2022-07-29T08:55:47.106Z,37.40
2022-07-29T08:56:47.139Z,38.09
2022-07-29T08:57:53.429Z,37.18
2022-07-29T08:58:50.725Z,37.46
2022-07-29T08:59:47.248Z,37.42
2022-07-29T09:00:47.284Z,34.51
2022-07-29T09:01:47.350Z,36.78
2022-07-29T09:02:47.500Z,38.08
2022-07-29T09:03:47.420Z,39.06
2022-07-29T09:04:47.389Z,39.52
2022-07-29T09:05:48.234Z,38.64
2022-07-29T09:06:47.464Z,37.91
2022-07-29T09:07:47.548Z,37.46
2022-07-29T09:08:47.491Z,37.18
2022-07-29T09:09:47.514Z,37.65
2022-07-29T09:10:47.522Z,40.29
2022-07-29T09:11:47.523Z,41.02
2022-07-29T09:12:47.533Z,42.01
2022-07-29T09:13:47.554Z,42.35
2022-07-29T09:14:47.665Z,41.97
2022-07-29T09:15:47.690Z,40.88
2022-07-29T09:17:00.902Z,38.96
2022-07-29T09:17:47.820Z,38.06
2022-07-29T09:18:47.749Z,38.65
2022-07-29T09:19:47.747Z,37.59
2022-07-29T09:20:47.794Z,38.67
2022-07-29T09:21:47.849Z,38.85
2022-07-29T09:22:47.890Z,40.17
2022-07-29T09:23:47.920Z,40.48
2022-07-29T09:24:47.922Z,41.00
2022-07-29T09:25:47.930Z,41.04
2022-07-29T09:26:48.900Z,41.87
2022-07-29T09:27:47.988Z,41.87
2022-07-29T09:28:48.027Z,41.87
2022-07-29T09:29:48.113Z,42.21
2022-07-29T09:30:48.117Z,42.72
2022-07-29T09:31:48.134Z,43.06
2022-07-29T09:32:48.164Z,43.38
2022-07-29T09:33:48.194Z,44.18
2022-07-29T09:34:48.216Z,44.48
2022-07-29T09:35:56.351Z,44.79
2022-07-29T09:36:48.266Z,45.49
2022-07-29T09:37:48.296Z,45.11
2022-07-29T09:38:48.386Z,44.93
2022-07-29T09:39:48.410Z,45.83
2022-07-29T09:40:48.417Z,47.70
2022-07-29T09:41:48.431Z,47.20
2022-07-29T09:42:48.454Z,46.58
2022-07-29T09:43:48.489Z,44.87
2022-07-29T09:44:48.521Z,46.08
2022-07-29T09:45:48.540Z,45.59
2022-07-29T09:46:48.630Z,47.17
2022-07-29T09:47:48.601Z,44.57
2022-07-29T09:48:48.718Z,44.49
2022-07-29T09:49:48.693Z,42.41
2022-07-29T09:50:48.753Z,41.93
2022-07-29T09:51:48.813Z,39.78
2022-07-29T09:52:48.878Z,40.03
2022-07-29T09:53:48.925Z,39.04
2022-07-29T09:54:48.986Z,39.06
2022-07-29T09:55:49.024Z,39.79
2022-07-29T09:56:50.018Z,39.50
2022-07-29T09:57:49.128Z,40.37
2022-07-29T09:58:49.214Z,39.17
2022-07-29T09:59:50.160Z,38.26
2022-07-29T10:00:49.291Z,38.12
2022-07-29T10:01:49.197Z,38.09
2022-07-29T10:02:49.246Z,38.18
2022-07-29T10:03:49.354Z,37.57
2022-07-29T10:04:49.350Z,37.77
2022-07-29T10:05:49.400Z,37.77
2022-07-29T10:06:49.462Z,37.79
2022-07-29T10:07:53.736Z,38.51
2022-07-29T10:08:49.541Z,38.34
2022-07-29T10:09:49.553Z,38.89
2022-07-29T10:10:49.583Z,39.91
2022-07-29T10:11:49.985Z,40.61
2022-07-29T10:12:49.594Z,40.58
2022-07-29T10:13:49.627Z,41.17
2022-07-29T10:14:49.645Z,39.79
2022-07-29T10:15:49.706Z,41.49
2022-07-29T10:16:49.658Z,41.57
2022-07-29T10:17:49.667Z,41.97
2022-07-29T10:18:49.686Z,41.67
2022-07-29T10:19:49.715Z,41.38
2022-07-29T10:20:49.771Z,41.08
2022-07-29T10:21:49.782Z,39.68
2022-07-29T10:22:53.487Z,39.60
2022-07-29T10:23:49.893Z,40.48
2022-07-29T10:24:49.880Z,40.29
2022-07-29T10:25:49.921Z,39.72
2022-07-29T10:26:49.930Z,40.31
2022-07-29T10:27:49.931Z,40.19
2022-07-29T10:28:49.942Z,39.20
2022-07-29T10:29:49.934Z,40.61
2022-07-29T10:30:49.912Z,40.09
2022-07-29T10:31:50.008Z,39.70
2022-07-29T10:32:53.974Z,38.61
2022-07-29T10:33:49.974Z,39.12
2022-07-29T10:34:49.996Z,40.11
2022-07-29T10:35:50.027Z,39.91
2022-07-29T10:36:50.055Z,40.29
2022-07-29T10:37:50.057Z,40.29
2022-07-29T10:38:50.121Z,41.25
2022-07-29T10:39:50.154Z,41.25
2022-07-29T10:40:50.210Z,38.79
2022-07-29T10:41:50.214Z,39.32
2022-07-29T10:42:50.288Z,40.41
2022-07-29T10:43:51.324Z,40.23
2022-07-29T10:44:50.292Z,40.25
2022-07-29T10:45:50.358Z,40.37
2022-07-29T10:46:50.446Z,39.87
2022-07-29T10:47:50.402Z,39.16
2022-07-29T10:48:50.492Z,38.94
2022-07-29T10:49:50.443Z,38.25
2022-07-29T10:50:50.503Z,39.32
2022-07-29T10:51:50.587Z,39.28
2022-07-29T10:52:50.624Z,38.67
2022-07-29T10:53:51.050Z,37.49
2022-07-29T10:54:50.724Z,36.71
2022-07-29T10:55:50.755Z,37.13
2022-07-29T10:56:50.786Z,37.23
2022-07-29T10:57:53.710Z,37.54
2022-07-29T10:58:52.869Z,37.84
2022-07-29T10:59:52.991Z,37.96
2022-07-29T11:00:50.897Z,37.98
2022-07-29T11:01:53.509Z,38.86
2022-07-29T11:02:51.141Z,39.26
2022-07-29T11:03:52.349Z,38.94
2022-07-29T11:04:50.899Z,38.40
2022-07-29T11:05:50.911Z,39.51
2022-07-29T11:06:50.921Z,39.61
2022-07-29T11:09:20.493Z,40.11
2022-07-29T11:10:18.698Z,40.41
2022-07-29T11:11:18.698Z,39.59
2022-07-29T11:12:18.728Z,40.01
2022-07-29T11:13:18.751Z,40.70
2022-07-29T11:14:18.758Z,39.71
2022-07-29T11:15:18.759Z,40.52
2022-07-29T11:16:20.193Z,40.42
2022-07-29T11:17:18.830Z,40.64
2022-07-29T11:18:18.822Z,40.94
2022-07-29T11:19:26.170Z,41.55
2022-07-29T11:20:18.922Z,41.87
2022-07-29T11:21:18.959Z,42.77
2022-07-29T11:22:18.982Z,43.36
2022-07-29T11:23:18.984Z,42.66
2022-07-29T11:24:28.976Z,42.35
2022-07-29T11:25:19.076Z,42.37
2022-07-29T11:26:19.175Z,42.58
2022-07-29T11:27:20.210Z,42.99
2022-07-29T11:28:22.780Z,42.77
2022-07-29T11:29:19.212Z,42.07
2022-07-29T11:30:19.221Z,42.37
2022-07-29T11:31:19.286Z,42.47
2022-07-29T11:32:22.678Z,42.37
2022-07-29T11:33:19.325Z,42.96
2022-07-29T11:34:20.933Z,42.77
2022-07-29T11:35:19.556Z,42.85
2022-07-29T11:36:19.410Z,41.87
2022-07-29T11:37:19.924Z,42.29
2022-07-29T11:38:19.469Z,43.18
2022-07-29T11:39:27.621Z,42.88
2022-07-29T11:40:31.444Z,43.16
2022-07-29T11:41:20.984Z,43.64
2022-07-29T11:43:46.138Z,43.54
2022-07-29T11:44:54.866Z,42.92
2022-07-29T11:45:45.665Z,42.03
2022-07-29T11:46:45.740Z,41.49
2022-07-29T11:50:11.888Z,39.91
2022-07-29T11:51:17.613Z,39.79
2022-07-29T11:52:11.790Z,39.22
2022-07-29T11:53:11.782Z,40.21
2022-07-29T11:54:15.649Z,40.19
2022-07-29T11:55:11.932Z,39.22
2022-07-29T11:56:11.885Z,39.46
2022-07-29T11:57:11.962Z,40.58
2022-07-29T11:58:11.994Z,41.28
2022-07-29T11:59:15.111Z,41.69
2022-07-29T12:00:12.455Z,41.57
2022-07-29T12:01:12.115Z,40.66
2022-07-29T12:02:36.947Z,40.05
2022-07-29T12:03:12.186Z,40.03
2022-07-29T12:04:12.231Z,39.81
2022-07-29T12:05:12.217Z,40.01
2022-07-29T12:06:12.286Z,40.29
2022-07-29T12:11:30.984Z,40.11
2022-07-29T12:18:14.933Z,39.89
2022-07-29T12:23:40.786Z,38.95
2022-07-29T12:24:32.035Z,38.34
2022-07-29T12:25:33.726Z,37.02
2022-07-29T12:28:16.225Z,38.32
2022-07-29T12:28:58.176Z,37.49
2022-07-29T12:29:58.171Z,36.72
2022-07-29T12:32:30.623Z,37.27
2022-07-29T12:33:24.332Z,37.88
2022-07-29T12:34:24.321Z,38.81
2022-07-29T12:35:28.716Z,39.43
2022-07-29T12:36:24.353Z,40.03
2022-07-29T12:37:31.894Z,39.93
2022-07-29T12:38:24.375Z,39.72
2022-07-29T12:39:24.415Z,38.53
2022-07-29T12:40:24.436Z,39.50
2022-07-29T12:41:24.486Z,39.70
2022-07-29T12:42:24.506Z,38.77
2022-07-29T12:43:24.556Z,39.23
2022-07-29T12:44:24.607Z,36.63
2022-07-29T12:45:24.560Z,36.99
2022-07-29T12:46:24.663Z,36.40
2022-07-29T12:47:24.609Z,36.38
2022-07-29T12:48:24.682Z,36.47
2022-07-29T12:49:24.792Z,36.79
2022-07-29T12:50:26.563Z,36.40
2022-07-29T12:51:24.764Z,36.77
2022-07-29T12:52:24.781Z,36.38
2022-07-29T12:53:24.849Z,36.88
2022-07-29T12:54:25.431Z,36.88
2022-07-29T12:55:24.925Z,38.01
2022-07-29T12:56:42.288Z,38.42
2022-07-29T12:57:24.999Z,38.01
2022-07-29T12:58:25.027Z,37.59
2022-07-29T12:59:25.018Z,37.40
2022-07-29T13:00:25.248Z,37.40
2022-07-29T13:01:25.058Z,37.71
2022-07-29T13:02:25.068Z,37.61
2022-07-29T13:03:25.035Z,37.99
2022-07-29T13:04:25.058Z,37.40
2022-07-29T13:05:25.072Z,38.20
2022-07-29T13:06:25.152Z,38.71
2022-07-29T13:08:25.227Z,39.86
2022-07-29T13:08:29.615Z,38.87
2022-07-29T13:09:25.211Z,40.55
2022-07-29T13:10:25.263Z,40.39
2022-07-29T13:11:25.317Z,40.61
2022-07-29T13:12:25.344Z,40.13
2022-07-29T13:13:25.393Z,40.82
2022-07-29T13:14:25.429Z,40.80
2022-07-29T13:15:25.485Z,40.98
2022-07-29T13:16:25.519Z,40.17
2022-07-29T13:17:25.661Z,40.27
2022-07-29T13:18:25.485Z,40.55
2022-07-29T13:19:25.527Z,39.95
2022-07-29T13:20:25.576Z,40.07
2022-07-29T13:21:25.529Z,40.58
2022-07-29T13:22:25.541Z,40.72
2022-07-29T13:23:25.585Z,41.93
2022-07-29T13:24:25.603Z,41.85
2022-07-29T13:25:25.679Z,42.43
2022-07-29T13:26:25.720Z,42.40
2022-07-29T13:27:25.728Z,42.19
2022-07-29T13:28:25.787Z,40.82
2022-07-29T13:29:31.129Z,41.44
2022-07-29T13:30:25.910Z,42.21
2022-07-29T13:31:26.865Z,42.11
2022-07-29T13:32:27.709Z,41.52
2022-07-29T13:33:26.935Z,42.97
2022-07-29T13:34:26.107Z,42.88
2022-07-29T13:35:26.046Z,40.84
2022-07-29T13:36:26.096Z,41.44
2022-07-29T13:37:26.170Z,41.95
2022-07-29T13:38:31.110Z,42.27
2022-07-29T13:39:26.236Z,42.36
2022-07-29T13:40:26.241Z,42.19
2022-07-29T13:41:26.247Z,42.58
2022-07-29T13:42:26.219Z,42.68
2022-07-29T13:43:26.330Z,42.68
2022-07-29T13:44:26.356Z,42.49
2022-07-29T13:45:26.228Z,42.86
2022-07-29T13:46:26.379Z,42.54
2022-07-29T13:47:32.740Z,41.65
2022-07-29T13:48:26.393Z,41.63
2022-07-29T13:49:26.379Z,41.73
2022-07-29T13:50:26.413Z,41.63
2022-07-29T13:51:26.491Z,42.13
2022-07-29T13:52:26.524Z,42.22
2022-07-29T13:53:26.763Z,41.44
2022-07-29T13:54:26.557Z,41.52
2022-07-29T13:55:26.706Z,41.10
2022-07-29T13:56:26.661Z,41.30
2022-07-29T13:57:27.568Z,41.38
2022-07-29T13:58:26.856Z,41.17
2022-07-29T13:59:28.823Z,39.99
2022-07-29T14:00:27.009Z,41.08
2022-07-29T14:01:26.978Z,40.88
2022-07-29T14:02:26.940Z,40.69